createdAt,value
2022-08-30T00:03:13.466Z,100
2022-08-30T00:13:13.265Z,100
2022-08-30T00:23:13.243Z,100
2022-08-30T00:33:13.265Z,100
2022-08-30T00:43:13.892Z,100
2022-08-30T00:53:13.246Z,100
2022-08-30T01:03:13.264Z,100
2022-08-30T01:13:13.255Z,100
2022-08-30T01:23:13.283Z,100
2022-08-30T01:33:13.204Z,100
2022-08-30T01:43:13.251Z,100
2022-08-30T01:53:13.488Z,100
2022-08-30T02:03:13.215Z,100
2022-08-30T02:13:13.216Z,100
2022-08-30T02:23:13.266Z,100
2022-08-30T02:33:13.266Z,100
2022-08-30T02:43:13.182Z,100
2022-08-30T02:53:16.179Z,100
2022-08-30T03:03:13.220Z,100
2022-08-30T03:13:13.151Z,100
2022-08-30T03:23:20.159Z,100
2022-08-30T03:33:13.109Z,100
2022-08-30T03:43:13.187Z,100
2022-08-30T03:53:13.113Z,100
2022-08-30T04:03:13.073Z,100
2022-08-30T04:13:13.076Z,100
2022-08-30T04:23:13.068Z,100
2022-08-30T04:33:13.082Z,100
2022-08-30T04:43:13.239Z,100
2022-08-30T04:53:13.080Z,100
2022-08-30T05:03:13.120Z,100
2022-08-30T05:13:13.028Z,100
2022-08-30T05:23:12.999Z,100
2022-08-30T05:33:12.981Z,100
2022-08-30T05:43:12.955Z,100
2022-08-30T05:53:12.949Z,100
2022-08-30T06:03:13.040Z,100
2022-08-30T06:13:12.933Z,100
2022-08-30T06:23:12.952Z,100
2022-08-30T06:33:12.920Z,100
2022-08-30T06:43:12.930Z,100
2022-08-30T06:53:12.930Z,100
2022-08-30T07:03:12.927Z,100
2022-08-30T07:13:12.912Z,100
2022-08-30T07:23:12.889Z,100
2022-08-30T07:33:12.923Z,100
2022-08-30T07:43:12.898Z,96
2022-08-30T07:53:12.993Z,94
2022-08-30T08:03:12.836Z,85
2022-08-30T08:13:12.809Z,83
2022-08-30T08:23:12.814Z,82
2022-08-30T08:33:12.782Z,78
2022-08-30T08:43:12.836Z,77
2022-08-30T08:53:16.732Z,76
2022-08-30T09:03:12.750Z,76
2022-08-30T09:13:13.468Z,70
2022-08-30T09:23:12.734Z,68
2022-08-30T09:33:12.708Z,66
2022-08-30T09:43:12.723Z,61
2022-08-30T09:53:12.683Z,58
2022-08-30T10:03:12.688Z,58
2022-08-30T10:13:12.696Z,59
2022-08-30T10:23:12.696Z,60
2022-08-30T10:33:12.680Z,57
2022-08-30T10:43:12.694Z,54
2022-08-30T10:53:12.662Z,59
2022-08-30T11:03:12.641Z,55
2022-08-30T11:13:12.620Z,52
2022-08-30T11:23:12.626Z,51
2022-08-30T11:33:13.015Z,50
2022-08-30T11:43:12.614Z,53
2022-08-30T11:53:12.587Z,52
2022-08-30T12:03:12.597Z,53
2022-08-30T12:13:12.545Z,52
2022-08-30T12:23:12.523Z,51
2022-08-30T12:33:12.516Z,50
2022-08-30T12:43:12.517Z,52
2022-08-30T12:53:14.059Z,53
2022-08-30T13:03:14.838Z,53
2022-08-30T13:13:12.492Z,49
2022-08-30T13:23:12.468Z,47
2022-08-30T13:33:12.478Z,52
2022-08-30T13:43:12.437Z,49
2022-08-30T13:53:12.874Z,50
2022-08-30T14:03:21.093Z,49
2022-08-30T14:13:12.561Z,50
2022-08-30T14:23:12.377Z,53
2022-08-30T14:33:13.368Z,52
2022-08-30T14:43:12.368Z,55
2022-08-30T14:53:12.340Z,55
2022-08-30T15:03:12.338Z,53
2022-08-30T15:13:12.306Z,50
2022-08-30T15:23:12.316Z,53
2022-08-30T15:33:12.320Z,54
2022-08-30T15:43:12.300Z,54
2022-08-30T15:53:12.336Z,54
2022-08-30T16:03:12.373Z,56
2022-08-30T16:13:12.253Z,59
2022-08-30T16:23:12.295Z,59
2022-08-30T16:33:12.271Z,63
2022-08-30T16:43:12.232Z,63
2022-08-30T16:53:12.253Z,64
2022-08-30T17:03:12.214Z,67
2022-08-30T17:13:12.203Z,69
2022-08-30T17:23:12.187Z,74
2022-08-30T17:33:12.183Z,80
2022-08-30T17:43:12.135Z,83
2022-08-30T17:53:12.129Z,82
2022-08-30T18:03:12.184Z,81
2022-08-30T18:13:12.101Z,85
2022-08-30T18:23:12.105Z,90
2022-08-30T18:33:12.088Z,93
2022-08-30T18:43:12.065Z,97
2022-08-30T18:53:12.050Z,98
2022-08-30T19:03:12.049Z,100
2022-08-30T19:13:12.078Z,100
2022-08-30T19:23:12.053Z,96
2022-08-30T19:33:12.126Z,95
2022-08-30T19:43:12.082Z,91
2022-08-30T19:53:12.014Z,90
2022-08-30T20:03:12.082Z,96
2022-08-30T20:13:11.996Z,100
2022-08-30T20:33:11.948Z,100
2022-08-30T20:43:11.933Z,100
2022-08-30T20:53:11.947Z,100
2022-08-30T21:03:22.820Z,100
2022-08-30T21:13:11.911Z,100
2022-08-30T21:23:11.906Z,100
2022-08-30T21:33:11.902Z,100
2022-08-30T21:43:11.892Z,100
2022-08-30T21:53:15.238Z,100
2022-08-30T22:03:11.929Z,100
2022-08-30T22:13:11.874Z,100
2022-08-30T22:23:11.855Z,100
2022-08-30T22:33:11.814Z,100
2022-08-30T22:43:11.837Z,100
2022-08-30T22:53:11.805Z,100
2022-08-30T23:03:11.803Z,100
2022-08-30T23:13:11.816Z,100
2022-08-30T23:23:11.786Z,100
2022-08-30T23:33:11.787Z,100
2022-08-30T23:43:11.754Z,100
2022-08-30T23:53:11.750Z,100
